sensor_id;sensor_type;location;lat;lon;timestamp;P1;durP1;ratioP1;P2;durP2;ratioP2
27576;SDS011;15011;53.380;10.034;2023-07-13T00:00:52;4.90;;;2.40;;
27576;SDS011;15011;53.380;10.034;2023-07-13T00:05:59;3.60;;;2.45;;
27576;SDS011;15011;53.380;10.034;2023-07-13T00:11:01;2.60;;;2.28;;
27576;SDS011;15011;53.380;10.034;2023-07-13T00:16:02;3.90;;;2.30;;
27576;SDS011;15011;53.380;10.034;2023-07-13T00:21:03;3.08;;;2.47;;
27576;SDS011;15011;53.380;10.034;2023-07-13T00:26:07;3.05;;;2.15;;
27576;SDS011;15011;53.380;10.034;2023-07-13T00:31:10;3.70;;;2.63;;
27576;SDS011;15011;53.380;10.034;2023-07-13T00:36:11;3.55;;;2.50;;
27576;SDS011;15011;53.380;10.034;2023-07-13T00:41:13;2.50;;;2.30;;
27576;SDS011;15011;53.380;10.034;2023-07-13T00:46:15;3.72;;;2.97;;
27576;SDS011;15011;53.380;10.034;2023-07-13T00:51:19;4.65;;;2.85;;
27576;SDS011;15011;53.380;10.034;2023-07-13T00:56:22;3.40;;;3.00;;
27576;SDS011;15011;53.380;10.034;2023-07-13T01:01:23;6.00;;;3.40;;
27576;SDS011;15011;53.380;10.034;2023-07-13T01:06:23;4.70;;;3.23;;
27576;SDS011;15011;53.380;10.034;2023-07-13T01:11:24;5.40;;;3.78;;
27576;SDS011;15011;53.380;10.034;2023-07-13T01:16:26;4.10;;;3.30;;
27576;SDS011;15011;53.380;10.034;2023-07-13T01:21:28;5.63;;;3.85;;
27576;SDS011;15011;53.380;10.034;2023-07-13T01:26:32;4.78;;;4.10;;
27576;SDS011;15011;53.380;10.034;2023-07-13T01:31:32;7.10;;;3.93;;
27576;SDS011;15011;53.380;10.034;2023-07-13T01:36:32;5.20;;;3.70;;
27576;SDS011;15011;53.380;10.034;2023-07-13T01:41:33;4.93;;;4.15;;
27576;SDS011;15011;53.380;10.034;2023-07-13T01:46:34;5.03;;;4.55;;
27576;SDS011;15011;53.380;10.034;2023-07-13T01:51:34;5.13;;;4.63;;
27576;SDS011;15011;53.380;10.034;2023-07-13T01:56:35;5.00;;;3.87;;
27576;SDS011;15011;53.380;10.034;2023-07-13T02:01:35;8.27;;;5.03;;
27576;SDS011;15011;53.380;10.034;2023-07-13T02:11:37;6.25;;;4.88;;
27576;SDS011;15011;53.380;10.034;2023-07-13T02:16:37;6.53;;;5.10;;
27576;SDS011;15011;53.380;10.034;2023-07-13T02:21:38;6.27;;;5.10;;
27576;SDS011;15011;53.380;10.034;2023-07-13T02:26:38;7.07;;;5.10;;
27576;SDS011;15011;53.380;10.034;2023-07-13T02:31:38;5.70;;;5.20;;
27576;SDS011;15011;53.380;10.034;2023-07-13T02:36:39;6.43;;;5.13;;
27576;SDS011;15011;53.380;10.034;2023-07-13T02:41:39;5.93;;;4.83;;
27576;SDS011;15011;53.380;10.034;2023-07-13T02:46:40;6.28;;;5.38;;
27576;SDS011;15011;53.380;10.034;2023-07-13T02:51:40;7.33;;;4.40;;
27576;SDS011;15011;53.380;10.034;2023-07-13T02:56:41;6.60;;;5.23;;
27576;SDS011;15011;53.380;10.034;2023-07-13T03:01:41;7.13;;;4.65;;
27576;SDS011;15011;53.380;10.034;2023-07-13T03:06:42;9.10;;;5.20;;
27576;SDS011;15011;53.380;10.034;2023-07-13T03:11:42;6.43;;;4.90;;
27576;SDS011;15011;53.380;10.034;2023-07-13T03:16:43;7.25;;;4.50;;
27576;SDS011;15011;53.380;10.034;2023-07-13T03:21:43;7.33;;;5.50;;
27576;SDS011;15011;53.380;10.034;2023-07-13T03:26:44;6.37;;;4.77;;
27576;SDS011;15011;53.380;10.034;2023-07-13T03:31:44;6.80;;;4.63;;
27576;SDS011;15011;53.380;10.034;2023-07-13T03:46:45;5.88;;;4.00;;
27576;SDS011;15011;53.380;10.034;2023-07-13T04:06:47;7.13;;;5.07;;
27576;SDS011;15011;53.380;10.034;2023-07-13T04:11:48;7.40;;;5.57;;
27576;SDS011;15011;53.380;10.034;2023-07-13T04:21:48;7.60;;;5.27;;
27576;SDS011;15011;53.380;10.034;2023-07-13T04:26:49;7.43;;;5.70;;
27576;SDS011;15011;53.380;10.034;2023-07-13T04:31:50;8.05;;;5.80;;
27576;SDS011;15011;53.380;10.034;2023-07-13T04:46:51;9.23;;;6.10;;
27576;SDS011;15011;53.380;10.034;2023-07-13T05:01:52;9.55;;;6.55;;
27576;SDS011;15011;53.380;10.034;2023-07-13T05:11:53;8.27;;;5.38;;
27576;SDS011;15011;53.380;10.034;2023-07-13T05:21:57;6.15;;;4.85;;
27576;SDS011;15011;53.380;10.034;2023-07-13T05:26:57;9.47;;;5.03;;
27576;SDS011;15011;53.380;10.034;2023-07-13T05:31:58;5.43;;;4.45;;
27576;SDS011;15011;53.380;10.034;2023-07-13T05:36:58;7.50;;;4.57;;
27576;SDS011;15011;53.380;10.034;2023-07-13T05:41:59;6.27;;;3.83;;
27576;SDS011;15011;53.380;10.034;2023-07-13T05:46:59;8.20;;;3.53;;
27576;SDS011;15011;53.380;10.034;2023-07-13T05:52:00;10.07;;;4.27;;
27576;SDS011;15011;53.380;10.034;2023-07-13T05:57:00;11.00;;;3.67;;
27576;SDS011;15011;53.380;10.034;2023-07-13T06:02:01;10.83;;;4.13;;
27576;SDS011;15011;53.380;10.034;2023-07-13T06:07:01;9.50;;;3.40;;
27576;SDS011;15011;53.380;10.034;2023-07-13T06:12:01;11.67;;;3.80;;
27576;SDS011;15011;53.380;10.034;2023-07-13T06:17:02;8.23;;;3.67;;
27576;SDS011;15011;53.380;10.034;2023-07-13T06:22:03;5.72;;;3.25;;
27576;SDS011;15011;53.380;10.034;2023-07-13T06:27:03;6.32;;;2.85;;
27576;SDS011;15011;53.380;10.034;2023-07-13T06:32:04;9.00;;;2.75;;
27576;SDS011;15011;53.380;10.034;2023-07-13T06:37:05;11.60;;;2.95;;
27576;SDS011;15011;53.380;10.034;2023-07-13T06:42:06;6.57;;;2.90;;
27576;SDS011;15011;53.380;10.034;2023-07-13T06:47:07;7.15;;;2.30;;
27576;SDS011;15011;53.380;10.034;2023-07-13T06:52:07;7.82;;;2.83;;
27576;SDS011;15011;53.380;10.034;2023-07-13T06:57:07;8.73;;;3.07;;
27576;SDS011;15011;53.380;10.034;2023-07-13T07:02:09;6.50;;;3.10;;
27576;SDS011;15011;53.380;10.034;2023-07-13T07:07:10;9.85;;;2.85;;
27576;SDS011;15011;53.380;10.034;2023-07-13T07:12:10;5.93;;;2.50;;
27576;SDS011;15011;53.380;10.034;2023-07-13T07:17:11;7.10;;;2.80;;
27576;SDS011;15011;53.380;10.034;2023-07-13T07:22:11;10.50;;;3.00;;
27576;SDS011;15011;53.380;10.034;2023-07-13T07:27:12;10.63;;;2.97;;
27576;SDS011;15011;53.380;10.034;2023-07-13T07:32:12;7.53;;;2.40;;
27576;SDS011;15011;53.380;10.034;2023-07-13T07:37:13;7.32;;;2.60;;
27576;SDS011;15011;53.380;10.034;2023-07-13T07:42:14;6.80;;;2.47;;
27576;SDS011;15011;53.380;10.034;2023-07-13T07:47:14;8.00;;;2.88;;
27576;SDS011;15011;53.380;10.034;2023-07-13T07:52:15;10.70;;;3.88;;
27576;SDS011;15011;53.380;10.034;2023-07-13T07:57:15;6.07;;;3.00;;
27576;SDS011;15011;53.380;10.034;2023-07-13T08:02:16;8.37;;;2.67;;
27576;SDS011;15011;53.380;10.034;2023-07-13T08:07:16;7.00;;;2.70;;
27576;SDS011;15011;53.380;10.034;2023-07-13T08:12:17;6.95;;;3.13;;
27576;SDS011;15011;53.380;10.034;2023-07-13T08:17:18;5.72;;;2.60;;
27576;SDS011;15011;53.380;10.034;2023-07-13T08:22:18;7.60;;;2.50;;
27576;SDS011;15011;53.380;10.034;2023-07-13T08:27:19;6.32;;;2.55;;
27576;SDS011;15011;53.380;10.034;2023-07-13T08:32:20;5.65;;;2.28;;
27576;SDS011;15011;53.380;10.034;2023-07-13T08:37:22;7.25;;;2.45;;
27576;SDS011;15011;53.380;10.034;2023-07-13T08:42:27;6.30;;;2.47;;
27576;SDS011;15011;53.380;10.034;2023-07-13T08:47:34;6.03;;;2.20;;
27576;SDS011;15011;53.380;10.034;2023-07-13T08:52:37;8.13;;;2.13;;
27576;SDS011;15011;53.380;10.034;2023-07-13T08:57:39;3.80;;;2.00;;
27576;SDS011;15011;53.380;10.034;2023-07-13T09:02:42;3.65;;;2.13;;
27576;SDS011;15011;53.380;10.034;2023-07-13T09:18:30;4.53;;;2.42;;
27576;SDS011;15011;53.380;10.034;2023-07-13T09:23:37;5.43;;;2.83;;
27576;SDS011;15011;53.380;10.034;2023-07-13T09:28:45;4.03;;;2.30;;
27576;SDS011;15011;53.380;10.034;2023-07-13T09:33:47;4.40;;;3.22;;
27576;SDS011;15011;53.380;10.034;2023-07-13T09:38:48;4.07;;;2.22;;
27576;SDS011;15011;53.380;10.034;2023-07-13T09:44:09;4.30;;;2.60;;
27576;SDS011;15011;53.380;10.034;2023-07-13T09:49:11;3.83;;;2.67;;
27576;SDS011;15011;53.380;10.034;2023-07-13T09:54:23;5.32;;;2.92;;
27576;SDS011;15011;53.380;10.034;2023-07-13T09:59:35;4.85;;;2.88;;
27576;SDS011;15011;53.380;10.034;2023-07-13T10:04:37;3.30;;;3.10;;
27576;SDS011;15011;53.380;10.034;2023-07-13T10:09:38;4.57;;;2.90;;
27576;SDS011;15011;53.380;10.034;2023-07-13T10:14:39;4.15;;;2.70;;
27576;SDS011;15011;53.380;10.034;2023-07-13T10:19:41;4.40;;;2.60;;
27576;SDS011;15011;53.380;10.034;2023-07-13T10:24:44;5.85;;;3.30;;
27576;SDS011;15011;53.380;10.034;2023-07-13T10:35:25;4.68;;;3.10;;
27576;SDS011;15011;53.380;10.034;2023-07-13T10:40:39;4.32;;;3.60;;
27576;SDS011;15011;53.380;10.034;2023-07-13T10:45:43;4.15;;;3.30;;
27576;SDS011;15011;53.380;10.034;2023-07-13T10:50:46;5.63;;;2.80;;
27576;SDS011;15011;53.380;10.034;2023-07-13T11:01:13;4.70;;;2.85;;
27576;SDS011;15011;53.380;10.034;2023-07-13T11:27:30;2.72;;;2.20;;
27576;SDS011;15011;53.380;10.034;2023-07-13T11:32:37;3.95;;;2.60;;
27576;SDS011;15011;53.380;10.034;2023-07-13T11:37:38;4.10;;;2.70;;
27576;SDS011;15011;53.380;10.034;2023-07-13T11:42:39;2.58;;;2.38;;
27576;SDS011;15011;53.380;10.034;2023-07-13T11:47:40;4.90;;;2.60;;
27576;SDS011;15011;53.380;10.034;2023-07-13T11:52:40;2.40;;;2.20;;
27576;SDS011;15011;53.380;10.034;2023-07-13T11:58:14;4.27;;;2.57;;
27576;SDS011;15011;53.380;10.034;2023-07-13T12:03:10;3.20;;;2.60;;
27576;SDS011;15011;53.380;10.034;2023-07-13T12:08:11;3.50;;;2.40;;
27576;SDS011;15011;53.380;10.034;2023-07-13T12:13:12;4.95;;;2.80;;
27576;SDS011;15011;53.380;10.034;2023-07-13T12:18:20;4.15;;;2.50;;
27576;SDS011;15011;53.380;10.034;2023-07-13T12:23:23;3.33;;;2.60;;
27576;SDS011;15011;53.380;10.034;2023-07-13T12:28:34;6.47;;;3.60;;
27576;SDS011;15011;53.380;10.034;2023-07-13T12:33:39;7.15;;;4.18;;
27576;SDS011;15011;53.380;10.034;2023-07-13T12:38:41;5.70;;;3.45;;
27576;SDS011;15011;53.380;10.034;2023-07-13T12:43:46;5.88;;;3.80;;
27576;SDS011;15011;53.380;10.034;2023-07-13T12:48:53;7.53;;;3.93;;
27576;SDS011;15011;53.380;10.034;2023-07-13T12:53:57;7.22;;;4.72;;
27576;SDS011;15011;53.380;10.034;2023-07-13T12:59:04;5.93;;;4.28;;
27576;SDS011;15011;53.380;10.034;2023-07-13T13:04:08;6.40;;;4.75;;
27576;SDS011;15011;53.380;10.034;2023-07-13T13:09:12;6.15;;;4.18;;
27576;SDS011;15011;53.380;10.034;2023-07-13T13:14:13;5.57;;;4.30;;
27576;SDS011;15011;53.380;10.034;2023-07-13T13:19:15;3.77;;;3.37;;
27576;SDS011;15011;53.380;10.034;2023-07-13T13:24:19;5.63;;;3.20;;
27576;SDS011;15011;53.380;10.034;2023-07-13T13:29:22;3.67;;;2.33;;
27576;SDS011;15011;53.380;10.034;2023-07-13T13:34:24;3.88;;;2.55;;
27576;SDS011;15011;53.380;10.034;2023-07-13T13:39:28;2.25;;;2.05;;
27576;SDS011;15011;53.380;10.034;2023-07-13T13:44:34;3.78;;;2.17;;
27576;SDS011;15011;53.380;10.034;2023-07-13T13:49:34;3.07;;;2.17;;
27576;SDS011;15011;53.380;10.034;2023-07-13T13:54:36;3.92;;;2.42;;
27576;SDS011;15011;53.380;10.034;2023-07-13T13:59:37;2.97;;;2.67;;
27576;SDS011;15011;53.380;10.034;2023-07-13T14:04:39;2.72;;;2.50;;
27576;SDS011;15011;53.380;10.034;2023-07-13T14:09:40;3.93;;;2.40;;
27576;SDS011;15011;53.380;10.034;2023-07-13T14:14:40;2.60;;;2.40;;
27576;SDS011;15011;53.380;10.034;2023-07-13T14:19:41;2.92;;;2.58;;
27576;SDS011;15011;53.380;10.034;2023-07-13T14:24:42;3.90;;;2.50;;
27576;SDS011;15011;53.380;10.034;2023-07-13T14:29:42;4.67;;;2.83;;
27576;SDS011;15011;53.380;10.034;2023-07-13T14:34:43;3.93;;;3.43;;
27576;SDS011;15011;53.380;10.034;2023-07-13T14:39:44;4.85;;;3.78;;
27576;SDS011;15011;53.380;10.034;2023-07-13T14:44:45;4.53;;;4.05;;
27576;SDS011;15011;53.380;10.034;2023-07-13T14:49:45;4.17;;;3.77;;
27576;SDS011;15011;53.380;10.034;2023-07-13T14:54:48;4.32;;;3.45;;
27576;SDS011;15011;53.380;10.034;2023-07-13T14:59:49;4.03;;;3.58;;
27576;SDS011;15011;53.380;10.034;2023-07-13T15:04:51;4.63;;;3.50;;
27576;SDS011;15011;53.380;10.034;2023-07-13T15:09:51;4.40;;;4.00;;
27576;SDS011;15011;53.380;10.034;2023-07-13T15:14:52;5.05;;;3.22;;
27576;SDS011;15011;53.380;10.034;2023-07-13T15:19:53;3.58;;;2.90;;
27576;SDS011;15011;53.380;10.034;2023-07-13T15:24:53;2.60;;;2.28;;
27576;SDS011;15011;53.380;10.034;2023-07-13T15:29:54;2.80;;;2.17;;
27576;SDS011;15011;53.380;10.034;2023-07-13T15:34:55;2.40;;;2.20;;
27576;SDS011;15011;53.380;10.034;2023-07-13T15:39:55;1.83;;;1.73;;
27576;SDS011;15011;53.380;10.034;2023-07-13T15:44:56;2.33;;;2.10;;
27576;SDS011;15011;53.380;10.034;2023-07-13T15:49:56;3.25;;;1.98;;
27576;SDS011;15011;53.380;10.034;2023-07-13T15:54:58;1.85;;;1.75;;
27576;SDS011;15011;53.380;10.034;2023-07-13T16:00:00;2.95;;;2.42;;
27576;SDS011;15011;53.380;10.034;2023-07-13T16:05:01;3.28;;;2.22;;
27576;SDS011;15011;53.380;10.034;2023-07-13T16:10:01;2.70;;;1.30;;
27576;SDS011;15011;53.380;10.034;2023-07-13T16:15:04;2.75;;;1.30;;
27576;SDS011;15011;53.380;10.034;2023-07-13T16:20:09;1.73;;;1.10;;
27576;SDS011;15011;53.380;10.034;2023-07-13T16:25:17;2.05;;;1.38;;
27576;SDS011;15011;53.380;10.034;2023-07-13T16:30:20;2.03;;;1.45;;
27576;SDS011;15011;53.380;10.034;2023-07-13T16:35:23;1.40;;;1.25;;
27576;SDS011;15011;53.380;10.034;2023-07-13T16:40:28;1.27;;;1.27;;
27576;SDS011;15011;53.380;10.034;2023-07-13T16:45:30;1.52;;;1.20;;
27576;SDS011;15011;53.380;10.034;2023-07-13T16:50:34;1.02;;;0.93;;
27576;SDS011;15011;53.380;10.034;2023-07-13T16:55:38;1.70;;;1.00;;
27576;SDS011;15011;53.380;10.034;2023-07-13T17:00:39;1.70;;;1.10;;
27576;SDS011;15011;53.380;10.034;2023-07-13T17:05:40;1.87;;;0.83;;
27576;SDS011;15011;53.380;10.034;2023-07-13T17:10:43;2.80;;;1.15;;
27576;SDS011;15011;53.380;10.034;2023-07-13T17:15:45;2.40;;;1.17;;
27576;SDS011;15011;53.380;10.034;2023-07-13T17:20:46;2.70;;;1.08;;
27576;SDS011;15011;53.380;10.034;2023-07-13T17:25:48;1.50;;;1.00;;
27576;SDS011;15011;53.380;10.034;2023-07-13T17:30:49;1.70;;;1.20;;
27576;SDS011;15011;53.380;10.034;2023-07-13T17:35:51;2.38;;;1.15;;
27576;SDS011;15011;53.380;10.034;2023-07-13T17:40:51;1.95;;;1.35;;
27576;SDS011;15011;53.380;10.034;2023-07-13T17:45:53;1.13;;;1.10;;
27576;SDS011;15011;53.380;10.034;2023-07-13T17:50:54;0.93;;;0.75;;
27576;SDS011;15011;53.380;10.034;2023-07-13T17:55:55;4.18;;;1.30;;
27576;SDS011;15011;53.380;10.034;2023-07-13T18:00:57;1.17;;;1.10;;
27576;SDS011;15011;53.380;10.034;2023-07-13T18:06:01;1.00;;;0.90;;
27576;SDS011;15011;53.380;10.034;2023-07-13T18:11:03;0.98;;;0.80;;
27576;SDS011;15011;53.380;10.034;2023-07-13T18:16:04;2.63;;;1.30;;
27576;SDS011;15011;53.380;10.034;2023-07-13T18:21:06;1.20;;;1.08;;
27576;SDS011;15011;53.380;10.034;2023-07-13T18:26:09;0.90;;;0.90;;
27576;SDS011;15011;53.380;10.034;2023-07-13T18:31:11;1.70;;;1.10;;
27576;SDS011;15011;53.380;10.034;2023-07-13T18:36:14;2.35;;;1.02;;
27576;SDS011;15011;53.380;10.034;2023-07-13T18:41:18;1.15;;;1.00;;
27576;SDS011;15011;53.380;10.034;2023-07-13T18:46:21;1.20;;;1.10;;
27576;SDS011;15011;53.380;10.034;2023-07-13T18:51:22;1.70;;;1.05;;
27576;SDS011;15011;53.380;10.034;2023-07-13T18:56:23;1.30;;;1.20;;
27576;SDS011;15011;53.380;10.034;2023-07-13T19:01:31;1.67;;;1.20;;
27576;SDS011;15011;53.380;10.034;2023-07-13T19:06:35;2.45;;;1.30;;
27576;SDS011;15011;53.380;10.034;2023-07-13T19:11:35;2.80;;;2.00;;
27576;SDS011;15011;53.380;10.034;2023-07-13T19:16:36;2.37;;;2.10;;
27576;SDS011;15011;53.380;10.034;2023-07-13T19:21:36;2.92;;;2.20;;
27576;SDS011;15011;53.380;10.034;2023-07-13T19:26:38;1.67;;;1.58;;
27576;SDS011;15011;53.380;10.034;2023-07-13T19:31:39;2.55;;;2.20;;
27576;SDS011;15011;53.380;10.034;2023-07-13T19:36:40;5.43;;;4.55;;
27576;SDS011;15011;53.380;10.034;2023-07-13T19:41:41;2.60;;;2.30;;
27576;SDS011;15011;53.380;10.034;2023-07-13T19:46:41;2.00;;;1.80;;
27576;SDS011;15011;53.380;10.034;2023-07-13T19:51:41;2.13;;;1.50;;
27576;SDS011;15011;53.380;10.034;2023-07-13T19:56:42;1.65;;;1.55;;
27576;SDS011;15011;53.380;10.034;2023-07-13T20:01:43;2.08;;;1.80;;
27576;SDS011;15011;53.380;10.034;2023-07-13T20:06:45;1.70;;;1.60;;
27576;SDS011;15011;53.380;10.034;2023-07-13T20:11:46;2.95;;;1.98;;
27576;SDS011;15011;53.380;10.034;2023-07-13T20:16:47;2.45;;;1.98;;
27576;SDS011;15011;53.380;10.034;2023-07-13T20:21:49;1.92;;;1.80;;
27576;SDS011;15011;53.380;10.034;2023-07-13T20:26:49;5.38;;;2.03;;
27576;SDS011;15011;53.380;10.034;2023-07-13T20:31:50;3.00;;;1.90;;
27576;SDS011;15011;53.380;10.034;2023-07-13T20:36:50;3.73;;;1.90;;
27576;SDS011;15011;53.380;10.034;2023-07-13T20:41:51;2.30;;;2.13;;
27576;SDS011;15011;53.380;10.034;2023-07-13T20:46:52;2.47;;;2.28;;
27576;SDS011;15011;53.380;10.034;2023-07-13T20:51:52;4.03;;;1.87;;
27576;SDS011;15011;53.380;10.034;2023-07-13T20:56:53;4.05;;;2.35;;
27576;SDS011;15011;53.380;10.034;2023-07-13T21:01:57;2.88;;;2.20;;
27576;SDS011;15011;53.380;10.034;2023-07-13T21:06:58;2.50;;;2.30;;
27576;SDS011;15011;53.380;10.034;2023-07-13T21:11:58;2.75;;;2.50;;
27576;SDS011;15011;53.380;10.034;2023-07-13T21:16:59;2.93;;;2.50;;
27576;SDS011;15011;53.380;10.034;2023-07-13T21:21:59;2.47;;;2.27;;
27576;SDS011;15011;53.380;10.034;2023-07-13T21:26:59;2.63;;;2.42;;
27576;SDS011;15011;53.380;10.034;2023-07-13T21:32:02;5.20;;;2.20;;
27576;SDS011;15011;53.380;10.034;2023-07-13T21:37:03;3.72;;;3.28;;
27576;SDS011;15011;53.380;10.034;2023-07-13T21:42:04;7.63;;;4.68;;
27576;SDS011;15011;53.380;10.034;2023-07-13T21:47:04;3.90;;;3.03;;
27576;SDS011;15011;53.380;10.034;2023-07-13T21:52:16;8.65;;;5.78;;
27576;SDS011;15011;53.380;10.034;2023-07-13T21:57:17;3.50;;;2.85;;
27576;SDS011;15011;53.380;10.034;2023-07-13T22:02:18;3.25;;;2.60;;
27576;SDS011;15011;53.380;10.034;2023-07-13T22:07:18;3.50;;;2.73;;
27576;SDS011;15011;53.380;10.034;2023-07-13T22:12:18;2.72;;;2.53;;
27576;SDS011;15011;53.380;10.034;2023-07-13T22:17:19;2.90;;;2.60;;
27576;SDS011;15011;53.380;10.034;2023-07-13T22:22:19;3.30;;;3.00;;
27576;SDS011;15011;53.380;10.034;2023-07-13T22:27:20;3.17;;;2.97;;
27576;SDS011;15011;53.380;10.034;2023-07-13T22:32:20;4.40;;;3.28;;
27576;SDS011;15011;53.380;10.034;2023-07-13T22:37:21;3.70;;;3.15;;
27576;SDS011;15011;53.380;10.034;2023-07-13T22:42:21;5.90;;;3.77;;
27576;SDS011;15011;53.380;10.034;2023-07-13T22:47:22;3.43;;;3.13;;
27576;SDS011;15011;53.380;10.034;2023-07-13T22:52:22;4.00;;;3.47;;
27576;SDS011;15011;53.380;10.034;2023-07-13T22:57:23;3.53;;;3.22;;
27576;SDS011;15011;53.380;10.034;2023-07-13T23:02:24;3.53;;;2.97;;
27576;SDS011;15011;53.380;10.034;2023-07-13T23:07:25;6.68;;;3.22;;
27576;SDS011;15011;53.380;10.034;2023-07-13T23:12:26;4.35;;;3.75;;
27576;SDS011;15011;53.380;10.034;2023-07-13T23:17:30;5.07;;;3.90;;
27576;SDS011;15011;53.380;10.034;2023-07-13T23:22:30;4.70;;;3.80;;
27576;SDS011;15011;53.380;10.034;2023-07-13T23:27:31;5.40;;;3.70;;
27576;SDS011;15011;53.380;10.034;2023-07-13T23:32:31;4.77;;;4.03;;
27576;SDS011;15011;53.380;10.034;2023-07-13T23:37:32;5.47;;;3.05;;
27576;SDS011;15011;53.380;10.034;2023-07-13T23:42:32;4.47;;;3.70;;
27576;SDS011;15011;53.380;10.034;2023-07-13T23:47:33;3.60;;;3.30;;
27576;SDS011;15011;53.380;10.034;2023-07-13T23:52:33;4.03;;;3.63;;
27576;SDS011;15011;53.380;10.034;2023-07-13T23:57:34;5.72;;;3.25;;
